Terminal Aerodrome Forecast
Issued by NWS

Home | Current Version | Previous Version | Text Only | Print | Product List | Glossary On
Versions: 1 2 3 4 5 6 7 8 9 10 11 12 13
000
FTUS45 KREV 251133
TAFTVL
TAF
KTVL 251133Z 2512/2612 VRB04KT P6SM SCT070
     FM251700 06007KT P6SM SCT035 SCT120
     FM260100 VRB04KT P6SM SCT050 BKN100=

USA.gov is the U.S. government's official web portal to all federal, state and local government web resources and services.